Time;durP1;ratioP1;P1;durP2;ratioP2;P2;SDS_P1;SDS_P2;PMS_P1;PMS_P2;Temp;Humidity;BMP_temperature;BMP_pressure;BME280_temperature;BME280_humidity;BME280_pressure;Samples;Min_cycle;Max_cycle;Signal;HPM_P1;HPM_P2
2022/04/10 00:01:30;;;;;;;11.77;6.35;;;;;;;8.94;93.78;98125.03;5052271;28;20397;-44
2022/04/10 00:03:59;;;;;;;10.63;5.93;;;;;;;8.96;94.31;98109.38;5050571;28;20043;-45
2022/04/10 00:06:26;;;;;;;8.15;5.18;;;;;;;8.97;94.51;98113.66;5050833;28;20040;-44
2022/04/10 00:08:52;;;;;;;8.00;5.20;;;;;;;8.91;93.97;98110.47;5050551;28;20127;-45
2022/04/10 00:11:18;;;;;;;11.45;5.75;;;;;;;8.88;94.24;98108.06;5051912;28;20139;-43
2022/04/10 00:13:44;;;;;;;8.75;5.03;;;;;;;8.74;95.20;98087.19;5051946;28;20040;-44
2022/04/10 00:16:10;;;;;;;12.00;5.88;;;;;;;8.87;95.16;98089.97;5050636;28;20048;-44
2022/04/10 00:18:37;;;;;;;9.43;5.90;;;;;;;8.85;95.27;98092.66;5051961;28;20036;-44
2022/04/10 00:21:04;;;;;;;13.70;6.35;;;;;;;8.69;95.90;98072.81;5051905;28;20045;-44
2022/04/10 00:23:31;;;;;;;11.32;5.93;;;;;;;8.79;96.54;98097.34;5051666;28;20403;-43
2022/04/10 00:25:56;;;;;;;11.90;6.22;;;;;;;8.78;97.03;98093.91;5051808;28;20056;-43
2022/04/10 00:28:22;;;;;;;8.90;5.38;;;;;;;8.77;96.94;98084.44;5051638;28;20045;-43
2022/04/10 00:30:48;;;;;;;8.02;5.30;;;;;;;8.80;96.88;98078.25;5050291;28;20048;-44
2022/04/10 00:33:14;;;;;;;11.65;5.40;;;;;;;8.76;96.27;98074.16;5050595;28;20056;-44
2022/04/10 00:35:40;;;;;;;8.70;4.65;;;;;;;8.76;96.65;98079.34;5050018;28;20515;-42
2022/04/10 00:38:06;;;;;;;9.00;5.07;;;;;;;8.71;96.00;98063.19;5050576;28;20083;-43
2022/04/10 00:40:32;;;;;;;9.60;5.35;;;;;;;8.76;96.54;98068.97;5049595;28;20131;-43
2022/04/10 00:42:58;;;;;;;7.85;5.38;;;;;;;8.68;96.29;98053.84;5051266;28;20483;-43
2022/04/10 00:45:24;;;;;;;10.95;5.45;;;;;;;8.77;96.46;98070.66;5051188;28;20045;-43
2022/04/10 00:47:50;;;;;;;8.23;5.65;;;;;;;8.76;97.17;98068.97;5033599;28;20114;-41
2022/04/10 00:50:18;;;;;;;9.55;5.28;;;;;;;8.72;97.41;98060.53;5050484;28;20124;-42
2022/04/10 00:52:45;;;;;;;9.85;5.38;;;;;;;8.65;98.77;98061.78;5050035;28;20579;-43
2022/04/10 00:55:11;;;;;;;9.27;6.15;;;;;;;8.61;99.88;98046.47;5050742;28;20098;-43
2022/04/10 00:57:37;;;;;;;13.38;5.60;;;;;;;8.60;100.00;98050.81;5049807;28;20506;-43
2022/04/10 01:00:05;;;;;;;10.45;5.45;;;;;;;8.66;100.00;98065.19;5064481;28;20164;-43
2022/04/10 01:02:31;;;;;;;10.68;5.80;;;;;;;8.62;100.00;98068.88;5049626;28;20036;-47
2022/04/10 01:04:57;;;;;;;9.88;5.90;;;;;;;8.56;100.00;98054.50;5049396;28;20103;-43
2022/04/10 01:07:23;;;;;;;9.68;4.85;;;;;;;8.53;100.00;98062.41;5049614;28;20048;-43
2022/04/10 01:09:49;;;;;;;12.10;6.30;;;;;;;8.53;100.00;98069.38;5043884;28;20570;-44
2022/04/10 01:12:15;;;;;;;7.28;5.45;;;;;;;8.50;100.00;98057.41;5051261;28;20037;-43
2022/04/10 01:14:46;;;;;;;8.48;5.25;;;;;;;8.46;100.00;98053.28;5049485;28;20040;-42
2022/04/10 01:17:14;;;;;;;9.65;5.10;;;;;;;8.34;100.00;98041.81;5047785;28;20539;-43
2022/04/10 01:19:41;;;;;;;10.23;6.75;;;;;;;8.38;100.00;98053.69;5047465;28;20049;-43
2022/04/10 01:22:10;;;;;;;9.10;5.55;;;;;;;8.40;100.00;98059.63;5047523;28;20052;-42
2022/04/10 01:24:49;;;;;;;7.57;6.18;;;;;;;8.38;100.00;98061.44;5042228;28;20045;-43
2022/04/10 01:27:18;;;;;;;10.23;5.03;;;;;;;8.33;100.00;98055.66;5047527;28;20047;-42
2022/04/10 01:29:43;;;;;;;8.63;6.45;;;;;;;8.28;100.00;98039.50;5044982;28;20045;-43
2022/04/10 01:32:09;;;;;;;12.05;6.68;;;;;;;8.28;100.00;98041.25;5045183;28;20508;-43
2022/04/10 01:34:37;;;;;;;8.25;5.20;;;;;;;8.28;100.00;98041.25;5032440;28;20040;-42
2022/04/10 01:37:04;;;;;;;9.32;5.68;;;;;;;8.28;100.00;98041.25;5032867;28;20471;-41
2022/04/10 01:39:30;;;;;;;12.63;6.55;;;;;;;8.26;100.00;98035.34;5049215;28;20505;-43
2022/04/10 01:41:56;;;;;;;11.27;7.60;;;;;;;8.13;100.00;98027.34;5049057;28;20048;-41
2022/04/10 01:44:23;;;;;;;10.02;6.70;;;;;;;8.23;100.00;98040.66;5048721;28;20076;-42
2022/04/10 01:46:48;;;;;;;11.60;7.10;;;;;;;8.21;100.00;98051.09;5050384;28;20114;-43
2022/04/10 01:49:14;;;;;;;10.43;6.88;;;;;;;8.21;100.00;98042.50;5015841;28;20059;-43
2022/04/10 01:51:40;;;;;;;11.73;7.95;;;;;;;8.23;100.00;98043.25;5032183;28;20037;-42
2022/04/10 01:54:06;;;;;;;12.07;6.95;;;;;;;8.24;100.00;98043.16;5048742;28;20055;-42
2022/04/10 01:56:32;;;;;;;9.88;6.63;;;;;;;8.26;100.00;98037.91;5048517;28;20051;-43
2022/04/10 01:59:00;;;;;;;11.43;6.43;;;;;;;8.25;100.00;98025.88;5046744;28;20056;-43
2022/04/10 02:01:26;;;;;;;10.27;7.03;;;;;;;8.25;100.00;98026.72;5048857;28;20116;-43
2022/04/10 02:03:52;;;;;;;13.77;7.28;;;;;;;8.28;100.00;98031.72;5048536;28;20047;-42
2022/04/10 02:06:19;;;;;;;11.77;7.55;;;;;;;8.28;100.00;98028.31;5048953;28;20044;-42
2022/04/10 02:08:48;;;;;;;10.70;7.93;;;;;;;8.27;100.00;98024.06;5048835;28;20037;-43
2022/04/10 02:11:18;;;;;;;12.77;7.68;;;;;;;8.25;100.00;98018.97;5048253;28;20044;-43
2022/04/10 02:13:46;;;;;;;13.23;8.43;;;;;;;8.24;100.00;98006.94;5031848;28;20037;-42
2022/04/10 02:16:18;;;;;;;12.40;8.52;;;;;;;8.30;100.00;98011.81;5048563;28;20057;-43
2022/04/10 02:18:46;;;;;;;12.93;7.93;;;;;;;8.36;100.00;98008.91;5048277;28;20062;-42
2022/04/10 02:21:14;;;;;;;12.35;8.13;;;;;;;8.39;100.00;98002.72;5047894;28;20063;-42
2022/04/10 02:23:41;;;;;;;13.75;7.50;;;;;;;8.38;100.00;98004.47;5048038;28;20037;-41
2022/04/10 02:26:10;;;;;;;12.55;8.32;;;;;;;8.38;100.00;98001.88;5038385;28;20548;-45
2022/04/10 02:28:37;;;;;;;14.82;8.85;;;;;;;8.41;100.00;98003.50;5045063;28;20079;-43
2022/04/10 02:31:02;;;;;;;12.85;8.18;;;;;;;8.41;100.00;98011.28;5044965;28;20061;-43
2022/04/10 02:33:29;;;;;;;11.93;7.88;;;;;;;8.44;100.00;98013.69;5045166;28;20127;-42
2022/04/10 02:35:55;;;;;;;11.15;8.43;;;;;;;8.47;100.00;98009.19;5014849;28;20584;-43
2022/04/10 02:38:21;;;;;;;10.98;7.55;;;;;;;8.53;100.00;98002.03;5049323;28;20044;-44
2022/04/10 02:40:47;;;;;;;10.77;8.27;;;;;;;8.57;100.00;98009.53;5048977;28;20538;-42
2022/04/10 02:43:14;;;;;;;11.40;8.10;;;;;;;8.60;100.00;98014.56;5047823;28;20048;-42
2022/04/10 02:45:45;;;;;;;10.40;7.53;;;;;;;8.66;100.00;98013.41;5046609;28;20043;-43
2022/04/10 02:48:11;;;;;;;13.80;7.93;;;;;;;8.71;100.00;98017.41;5047911;28;20041;-44
2022/04/10 02:50:38;;;;;;;11.50;8.32;;;;;;;8.75;100.00;98015.47;5047794;28;20049;-47
2022/04/10 02:53:04;;;;;;;10.65;7.53;;;;;;;8.81;100.00;98013.41;5047892;28;20037;-42
2022/04/10 02:55:30;;;;;;;11.65;8.13;;;;;;;8.88;100.00;98019.09;5032364;28;20047;-44
2022/04/10 02:58:16;;;;;;;10.25;7.60;;;;;;;8.98;100.00;98015.09;5040275;28;20079;-43
2022/04/10 03:01:00;;;;;;;11.80;7.82;;;;;;;8.96;100.00;98003.97;5041902;28;20076;-42
2022/04/10 03:03:46;;;;;;;10.80;7.32;;;;;;;9.07;100.00;98017.16;5056022;28;20141;-43
2022/04/10 03:06:30;;;;;;;12.48;8.05;;;;;;;9.11;100.00;98020.41;5047793;28;20047;-42
2022/04/10 03:09:14;;;;;;;11.07;7.82;;;;;;;9.16;100.00;98013.25;5047328;28;20055;-47
2022/04/10 03:11:59;;;;;;;13.68;7.10;;;;;;;9.16;100.00;98006.28;5048034;28;20072;-41
2022/04/10 03:14:44;;;;;;;12.02;8.32;;;;;;;9.21;100.00;98019.84;5048462;28;20060;-44
2022/04/10 03:17:30;;;;;;;10.75;8.02;;;;;;;9.24;100.00;98018.84;5046995;28;20177;-45
2022/04/10 03:20:15;;;;;;;12.63;7.22;;;;;;;9.26;100.00;98027.38;5032110;28;20051;-42
2022/04/10 03:23:00;;;;;;;13.55;7.50;;;;;;;9.28;100.00;98017.75;5047729;28;20428;-42
2022/04/10 03:25:44;;;;;;;9.88;6.38;;;;;;;9.31;100.00;98009.81;5047272;28;20048;-44
2022/04/10 03:28:30;;;;;;;12.95;7.95;;;;;;;9.31;100.00;98004.63;5047328;28;20079;-43
2022/04/10 03:31:15;;;;;;;12.48;7.95;;;;;;;9.35;100.00;98003.53;5047282;28;20132;-42
2022/04/10 03:33:59;;;;;;;10.95;7.85;;;;;;;9.37;100.00;98006.84;5046661;28;20047;-43
2022/04/10 03:36:44;;;;;;;10.95;8.23;;;;;;;9.38;100.00;98011.13;5047077;28;20047;-43
2022/04/10 03:39:29;;;;;;;11.18;8.30;;;;;;;9.41;100.00;98007.53;5046927;28;20114;-41
2022/04/10 03:42:15;;;;;;;9.90;7.65;;;;;;;9.41;100.00;98007.53;5047526;28;20475;-45
2022/04/10 03:45:00;;;;;;;10.98;7.88;;;;;;;9.42;100.00;98009.22;5048189;28;20099;-42
2022/04/10 03:47:49;;;;;;;12.18;8.43;;;;;;;9.44;100.00;98012.53;5047491;28;20048;-43
2022/04/10 03:50:34;;;;;;;11.50;8.38;;;;;;;9.50;100.00;98018.22;5047587;28;20075;-43
2022/04/10 03:53:19;;;;;;;14.02;8.75;;;;;;;9.50;100.00;98019.97;5027330;28;20473;-43
2022/04/10 03:56:05;;;;;;;12.20;8.15;;;;;;;9.41;100.00;98010.97;5041407;28;20455;-45
2022/04/10 03:58:50;;;;;;;11.73;7.60;;;;;;;9.48;100.00;98027.00;5045202;28;20719;-43
2022/04/10 04:01:35;;;;;;;9.75;8.05;;;;;;;9.51;100.00;98037.22;5046766;28;20531;-43
2022/04/10 04:04:21;;;;;;;12.05;8.65;;;;;;;9.43;100.00;98016.03;5046877;28;20488;-43
2022/04/10 04:07:06;;;;;;;9.32;7.57;;;;;;;9.55;99.24;98031.75;5046870;28;20106;-44
2022/04/10 04:09:51;;;;;;;10.35;7.43;;;;;;;9.60;98.56;98037.53;5046187;28;20043;-43
2022/04/10 04:12:37;;;;;;;11.48;8.13;;;;;;;9.68;98.84;98052.66;5047174;28;20534;-42
2022/04/10 04:15:21;;;;;;;12.30;8.02;;;;;;;9.72;97.69;98061.94;5075212;28;20062;-43
2022/04/10 04:18:06;;;;;;;11.82;8.15;;;;;;;9.67;97.59;98048.41;5046998;28;20052;-43
2022/04/10 04:20:53;;;;;;;10.32;7.55;;;;;;;9.63;97.59;98052.09;5046755;28;20132;-44
2022/04/10 04:23:38;;;;;;;11.45;8.30;;;;;;;9.70;97.42;98049.06;5046825;28;20087;-43
2022/04/10 04:26:24;;;;;;;11.52;8.32;;;;;;;9.72;97.03;98060.19;5046482;28;20066;-43
2022/04/10 04:29:09;;;;;;;14.00;8.75;;;;;;;9.76;97.16;98066.88;5046849;28;20051;-43
2022/04/10 04:31:55;;;;;;;13.48;9.38;;;;;;;9.72;97.22;98061.94;5046893;28;20091;-44
2022/04/10 04:34:39;;;;;;;13.25;8.75;;;;;;;9.67;97.55;98044.03;5032834;28;20139;-43
2022/04/10 04:37:24;;;;;;;12.95;8.38;;;;;;;9.77;96.27;98054.72;5033308;28;20048;-43
2022/04/10 04:40:10;;;;;;;11.00;7.60;;;;;;;9.72;95.55;98047.22;5032575;28;20763;-43
2022/04/10 04:42:54;;;;;;;12.60;8.30;;;;;;;9.77;95.61;98065.97;5047067;28;20056;-43
2022/04/10 04:45:41;;;;;;;8.82;6.20;;;;;;;9.77;96.04;98070.31;5050376;28;20663;-43
2022/04/10 04:48:31;;;;;;;12.13;7.60;;;;;;;9.69;96.43;98065.53;5050668;28;20874;-45
2022/04/10 04:51:15;;;;;;;12.20;7.88;;;;;;;9.81;96.18;98073.56;5051296;28;20052;-44
2022/04/10 04:54:02;;;;;;;12.43;7.80;;;;;;;9.89;95.57;98081.75;5044393;28;20051;-44
2022/04/10 04:56:46;;;;;;;17.02;9.07;;;;;;;9.82;95.58;98076.06;5043314;28;20048;-45
2022/04/10 04:59:31;;;;;;;12.63;8.73;;;;;;;9.79;96.10;98073.63;5033135;28;20130;-44
2022/04/10 05:02:15;;;;;;;10.25;6.53;;;;;;;9.78;95.78;98074.56;5050175;28;20044;-43
2022/04/10 05:05:00;;;;;;;13.65;8.85;;;;;;;9.78;96.25;98079.78;5050742;28;20127;-44
2022/04/10 05:07:45;;;;;;;12.40;8.30;;;;;;;9.90;95.85;98086.00;5048981;28;20043;-43
2022/04/10 05:10:29;;;;;;;12.70;8.13;;;;;;;9.86;95.19;98080.16;5049646;28;20111;-43
2022/04/10 05:13:15;;;;;;;12.48;8.65;;;;;;;9.79;95.31;98095.22;5050127;28;20451;-44
2022/04/10 05:15:59;;;;;;;15.02;9.15;;;;;;;9.77;96.24;98094.50;5064696;28;20431;-44
2022/04/10 05:18:50;;;;;;;15.00;9.10;;;;;;;9.79;96.16;98102.19;5069696;28;20449;-43
2022/04/10 05:21:38;;;;;;;13.25;7.53;;;;;;;9.77;96.29;98104.88;5055832;28;20124;-45
2022/04/10 05:24:22;;;;;;;13.48;9.13;;;;;;;9.65;98.01;98112.50;5052759;28;20068;-45
2022/04/10 05:27:10;;;;;;;13.63;8.38;;;;;;;9.60;98.68;98119.72;5055094;28;20127;-43
2022/04/10 05:29:54;;;;;;;14.07;7.97;;;;;;;9.53;100.00;98132.16;5061951;28;20118;-44
2022/04/10 05:32:42;;;;;;;14.80;9.35;;;;;;;9.52;100.00;98116.72;5052921;28;20047;-44
2022/04/10 05:35:27;;;;;;;14.65;9.88;;;;;;;9.48;100.00;98126.41;5049273;28;20548;-43
2022/04/10 05:38:12;;;;;;;13.95;8.85;;;;;;;9.27;100.00;98122.38;5053480;28;20420;-44
2022/04/10 05:40:58;;;;;;;10.68;7.65;;;;;;;9.40;100.00;98144.16;5029283;28;20103;-42
2022/04/10 05:43:46;;;;;;;13.38;9.32;;;;;;;9.35;100.00;98147.00;5064729;28;20043;-43
2022/04/10 05:46:31;;;;;;;12.63;8.40;;;;;;;9.34;100.00;98144.47;5063979;28;20093;-42
2022/04/10 05:49:19;;;;;;;15.05;9.15;;;;;;;9.35;100.00;98152.19;5047854;28;20067;-43
2022/04/10 05:52:04;;;;;;;17.77;10.90;;;;;;;9.29;100.00;98165.47;5047358;28;20091;-43
2022/04/10 05:54:48;;;;;;;16.83;10.30;;;;;;;9.29;100.00;98157.69;5048119;28;20295;-44
2022/04/10 05:57:33;;;;;;;21.50;11.48;;;;;;;9.32;100.00;98156.69;5059595;28;20578;-42
2022/04/10 06:00:17;;;;;;;13.88;8.90;;;;;;;9.41;100.00;98161.38;5044800;28;20067;-43
2022/04/10 06:03:13;;;;;;;17.40;10.13;;;;;;;9.34;100.00;98144.47;5048626;28;20047;-43
2022/04/10 06:06:01;;;;;;;14.35;9.32;;;;;;;9.44;100.00;98158.63;5075409;28;20052;-43
2022/04/10 06:08:57;;;;;;;11.57;8.18;;;;;;;9.56;100.00;98164.91;5058303;28;20526;-44
2022/04/10 06:11:42;;;;;;;22.08;8.65;;;;;;;9.63;100.00;98166.25;5048809;28;20091;-43
2022/04/10 06:14:27;;;;;;;12.38;8.93;;;;;;;9.83;100.00;98170.34;5034485;28;20087;-45
2022/04/10 06:16:53;;;;;;;10.93;6.75;;;;;;;9.76;100.00;98168.09;5048310;28;20048;-43
2022/04/10 06:19:23;;;;;;;;;;;;;;;9.82;100.00;98186.81;5052676;28;20044;-43
2022/04/10 06:21:50;;;;;;;8.82;4.43;;;;;;;9.84;100.00;98196.19;5084944;28;19923;-44
2022/04/10 06:24:15;;;;;;;10.55;7.10;;;;;;;9.81;100.00;98201.56;5063287;28;20048;-44
2022/04/10 06:26:44;;;;;;;10.90;7.43;;;;;;;9.78;100.00;98205.19;5048030;28;20140;-43
2022/04/10 06:29:11;;;;;;;8.70;6.00;;;;;;;9.85;100.00;98215.19;5081371;28;20473;-43
2022/04/10 06:31:43;;;;;;;8.32;6.35;;;;;;;9.65;100.00;98218.88;5047716;28;20052;-43
2022/04/10 06:34:09;;;;;;;8.48;6.45;;;;;;;9.69;100.00;98221.22;5047026;28;20032;-42
2022/04/10 06:36:38;;;;;;;9.75;5.72;;;;;;;9.70;99.37;98235.03;5045638;28;20405;-43
2022/04/10 06:39:04;;;;;;;8.48;5.53;;;;;;;9.67;99.92;98238.66;5044704;28;20037;-42
2022/04/10 06:41:33;;;;;;;7.30;5.40;;;;;;;9.56;98.71;98233.19;5047379;28;20049;-41
2022/04/10 06:44:04;;;;;;;11.43;6.47;;;;;;;9.79;98.22;98276.91;5047057;28;20047;-41
2022/04/10 06:46:56;;;;;;;5.85;4.53;;;;;;;9.86;97.54;98280.00;5045510;28;20051;-41
2022/04/10 06:49:29;;;;;;;3.97;2.85;;;;;;;9.77;94.00;98299.53;5050845;28;20045;-45
2022/04/10 06:51:58;;;;;;;3.75;2.75;;;;;;;9.72;93.29;98303.28;5031106;28;20540;-42
2022/04/10 06:54:31;;;;;;;2.53;2.10;;;;;;;9.72;92.00;98311.06;5050740;28;20044;-43
2022/04/10 06:56:57;;;;;;;2.90;2.10;;;;;;;9.74;91.50;98317.84;5044166;28;20475;-42
2022/04/10 06:59:23;;;;;;;1.58;1.25;;;;;;;9.74;88.82;98329.97;5036680;28;20065;-43
2022/04/10 07:01:50;;;;;;;1.58;1.20;;;;;;;9.49;88.36;98320.03;5047278;28;20369;-43
2022/04/10 07:04:16;;;;;;;1.48;1.00;;;;;;;9.53;87.08;98337.13;5049457;28;20045;-44
2022/04/10 07:06:46;;;;;;;0.70;0.70;;;;;;;9.51;85.80;98336.38;5046766;28;20037;-44
2022/04/10 07:09:16;;;;;;;0.85;0.60;;;;;;;9.46;83.47;98358.28;5030274;28;20661;-42
2022/04/10 07:11:42;;;;;;;0.90;0.60;;;;;;;9.44;82.12;98370.47;5046885;28;20119;-44
2022/04/10 07:14:18;;;;;;;1.23;0.70;;;;;;;9.44;81.90;98371.31;5021728;28;20040;-44
2022/04/10 07:16:44;;;;;;;1.58;0.68;;;;;;;9.49;81.13;98374.50;5047185;28;20044;-46
2022/04/10 07:19:10;;;;;;;1.50;0.80;;;;;;;9.52;81.11;98368.34;5034420;28;20051;-44
2022/04/10 07:24:22;;;;;;;2.05;0.52;;;;;;;9.66;79.40;98384.88;5048660;28;20067;-43
2022/04/10 07:26:54;;;;;;;1.05;0.70;;;;;;;9.67;78.35;98394.34;5046784;28;20115;-42
2022/04/10 07:29:26;;;;;;;1.35;0.77;;;;;;;9.62;77.32;98400.69;5047016;28;20095;-43
2022/04/10 07:31:53;;;;;;;2.00;0.70;;;;;;;9.57;76.78;98400.91;5045854;28;20049;-43
2022/04/10 07:34:19;;;;;;;1.40;0.82;;;;;;;9.54;76.20;98385.50;5029962;28;20142;-42
2022/04/10 07:37:10;;;;;;;1.83;0.90;;;;;;;9.75;75.87;98404.31;5028311;28;20476;-44
2022/04/10 07:39:48;;;;;;;3.55;1.20;;;;;;;9.88;75.51;98397.59;5045777;28;20056;-43
2022/04/10 07:42:21;;;;;;;2.40;1.15;;;;;;;10.02;74.51;98402.88;5069238;28;20649;-44
2022/04/10 07:44:47;;;;;;;1.60;1.30;;;;;;;10.09;74.21;98390.44;5052267;28;20043;-43
2022/04/10 07:47:25;;;;;;;1.15;0.73;;;;;;;10.30;73.08;98401.47;5029299;28;20045;-45
2022/04/10 07:49:53;;;;;;;1.60;0.90;;;;;;;10.53;71.37;98408.84;5057311;28;20052;-43
2022/04/10 07:52:20;;;;;;;1.77;0.90;;;;;;;10.83;69.87;98406.34;5055093;28;20653;-43
2022/04/10 07:54:55;;;;;;;1.98;1.00;;;;;;;11.11;68.44;98405.59;5042659;28;20476;-44
2022/04/10 07:57:21;;;;;;;1.42;0.90;;;;;;;11.35;67.17;98420.66;5041593;28;20075;-44
2022/04/10 07:59:48;;;;;;;2.35;1.13;;;;;;;11.43;65.99;98417.59;5041747;28;20172;-39
2022/04/10 08:02:20;;;;;;;3.85;1.10;;;;;;;11.47;65.53;98419.09;5045198;28;20056;-39
2022/04/10 08:04:45;;;;;;;1.88;1.00;;;;;;;11.63;65.29;98448.50;5046744;28;20040;-40
2022/04/10 08:07:29;;;;;;;3.85;1.20;;;;;;;11.56;64.88;98475.00;5058538;28;20037;-40
2022/04/10 08:09:55;;;;;;;1.92;1.20;;;;;;;11.49;64.18;98469.31;5047404;28;20420;-42
2022/04/10 08:12:21;;;;;;;2.13;1.15;;;;;;;11.56;64.28;98475.00;5046072;28;20037;-42
2022/04/10 08:14:48;;;;;;;1.60;1.20;;;;;;;11.65;64.07;98477.06;5040035;28;20540;-40
2022/04/10 08:17:14;;;;;;;1.85;1.08;;;;;;;11.60;63.29;98464.31;5044359;28;20163;-38
2022/04/10 08:19:40;;;;;;;1.40;0.95;;;;;;;11.69;62.87;98496.78;5043711;28;20136;-40
2022/04/10 08:22:06;;;;;;;1.75;1.25;;;;;;;11.64;63.34;98502.25;5051339;28;20040;-42
2022/04/10 08:24:32;;;;;;;3.17;1.17;;;;;;;11.60;62.93;98503.38;5030549;28;20049;-43
2022/04/10 08:26:59;;;;;;;1.20;1.02;;;;;;;11.63;63.09;98504.94;5046825;28;20127;-40
2022/04/10 08:29:25;;;;;;;2.78;1.20;;;;;;;11.66;62.89;98512.59;5050041;28;20249;-42
2022/04/10 08:31:51;;;;;;;0.80;0.73;;;;;;;11.71;61.89;98508.81;5045718;28;20056;-40
2022/04/10 08:34:17;;;;;;;1.63;1.00;;;;;;;11.55;61.75;98499.34;5065139;28;20099;-39
2022/04/10 08:36:43;;;;;;;1.20;1.00;;;;;;;11.64;61.57;98525.69;5052790;28;20044;-42
2022/04/10 08:39:09;;;;;;;2.30;1.00;;;;;;;11.61;61.25;98543.25;5045678;28;20040;-41
2022/04/10 08:41:37;;;;;;;1.48;1.10;;;;;;;11.50;61.67;98543.03;5055740;28;20161;-40
2022/04/10 08:44:04;;;;;;;4.00;1.30;;;;;;;11.44;61.63;98545.03;5051995;28;20176;-39
2022/04/10 08:46:31;;;;;;;1.73;1.25;;;;;;;11.48;61.27;98556.94;5048343;28;20463;-40
2022/04/10 08:48:58;;;;;;;1.50;1.05;;;;;;;11.52;60.61;98562.81;5051727;28;20132;-43
2022/04/10 08:51:25;;;;;;;1.77;1.00;;;;;;;11.52;60.47;98549.81;5044940;28;20049;-40
2022/04/10 08:53:52;;;;;;;1.70;1.23;;;;;;;11.65;59.60;98565.59;5046003;28;20033;-39
2022/04/10 08:56:18;;;;;;;1.27;1.10;;;;;;;11.59;59.79;98576.34;5053119;28;20500;-41
2022/04/10 08:58:43;;;;;;;1.30;1.15;;;;;;;11.63;59.29;98583.88;5046767;28;20114;-40
2022/04/10 09:01:11;;;;;;;2.40;1.17;;;;;;;11.53;58.97;98571.47;5048401;28;20059;-41
2022/04/10 09:03:38;;;;;;;2.53;1.40;;;;;;;11.63;58.76;98586.47;5042583;28;20037;-41
2022/04/10 09:06:06;;;;;;;1.52;1.20;;;;;;;11.64;58.43;98584.72;5041596;28;20428;-43
2022/04/10 09:08:32;;;;;;;1.83;1.42;;;;;;;11.64;58.36;98595.13;5047050;28;20091;-41
2022/04/10 09:11:03;;;;;;;2.15;1.27;;;;;;;11.65;58.18;98596.81;5044144;28;20086;-40
2022/04/10 09:13:31;;;;;;;2.55;1.30;;;;;;;11.62;58.24;98602.22;5045435;28;20049;-40
2022/04/10 09:16:20;;;;;;;2.38;1.30;;;;;;;11.58;58.21;98604.13;5046683;28;20158;-41
2022/04/10 09:18:50;;;;;;;3.03;1.60;;;;;;;11.72;57.66;98601.56;5045722;28;20044;-42
2022/04/10 09:21:18;;;;;;;1.90;1.40;;;;;;;11.82;57.33;98605.41;5046551;28;20040;-42
2022/04/10 09:23:52;;;;;;;1.88;1.40;;;;;;;12.00;57.35;98608.72;5051966;28;20072;-44
2022/04/10 09:26:18;;;;;;;1.75;1.50;;;;;;;11.93;56.75;98611.78;5049508;28;20083;-43
2022/04/10 09:28:47;;;;;;;3.58;1.65;;;;;;;11.93;56.37;98624.78;5049865;28;20064;-46
2022/04/10 09:31:33;;;;;;;2.25;1.60;;;;;;;11.91;56.19;98629.22;5047679;28;20037;-44
2022/04/10 09:34:01;;;;;;;1.60;1.50;;;;;;;11.92;56.21;98630.91;5047224;28;20037;-46
2022/04/10 09:36:43;;;;;;;3.20;2.10;;;;;;;11.87;55.47;98628.59;5050068;28;20064;-43
2022/04/10 09:39:13;;;;;;;5.70;2.13;;;;;;;11.85;55.67;98639.06;5038711;28;20049;-45
2022/04/10 09:41:41;;;;;;;3.72;2.47;;;;;;;11.94;55.71;98640.31;5043230;28;20128;-44
2022/04/10 09:44:19;;;;;;;2.60;2.13;;;;;;;12.01;55.97;98635.59;5038862;28;20038;-43
2022/04/10 09:46:57;;;;;;;4.18;2.03;;;;;;;12.23;55.52;98641.28;5041827;28;20045;-46
2022/04/10 09:49:23;;;;;;;3.50;2.65;;;;;;;12.38;55.46;98642.16;5030429;28;20465;-44
2022/04/10 09:52:06;;;;;;;4.40;2.80;;;;;;;12.51;54.92;98635.31;5052368;28;20043;-43
2022/04/10 09:54:39;;;;;;;4.80;2.70;;;;;;;12.62;54.27;98646.75;5052395;28;20037;-46
2022/04/10 09:57:16;;;;;;;3.33;2.42;;;;;;;12.67;53.44;98644.72;5050583;28;20851;-46
2022/04/10 09:59:43;;;;;;;5.90;2.53;;;;;;;12.73;53.08;98657.38;5053631;28;20143;-45
2022/04/10 10:02:15;;;;;;;4.38;2.45;;;;;;;12.80;53.11;98651.81;5029179;28;20056;-45
2022/04/10 10:04:42;;;;;;;3.20;2.55;;;;;;;12.89;53.00;98662.53;5048952;28;20049;-44
2022/04/10 10:07:14;;;;;;;10.13;3.17;;;;;;;12.99;52.40;98660.19;5042839;28;20043;-45
2022/04/10 10:09:41;;;;;;;4.53;3.15;;;;;;;13.05;51.64;98659.84;5052048;28;20045;-43
2022/04/10 10:12:08;;;;;;;6.07;3.20;;;;;;;13.20;51.16;98665.91;5030956;28;20041;-47
2022/04/10 10:14:35;;;;;;;4.88;3.67;;;;;;;13.31;50.87;98669.56;5046316;28;20036;-47
2022/04/10 10:17:04;;;;;;;5.07;3.70;;;;;;;13.38;50.48;98670.03;5046419;28;20420;-45
2022/04/10 10:19:34;;;;;;;8.57;4.22;;;;;;;13.48;50.18;98671.97;5032521;28;20037;-45
2022/04/10 10:22:00;;;;;;;;;;;;;;;13.63;50.08;98680.63;5039090;28;20178;-43
2022/04/10 10:24:29;;;;;;;10.45;5.05;;;;;;;13.74;49.78;98686.00;5026514;28;20352;-44
2022/04/10 10:27:19;;;;;;;15.30;7.72;;;;;;;13.82;49.68;98686.34;5062261;28;20037;-45
2022/04/10 10:30:06;;;;;;;4.63;3.13;;;;;;;13.94;49.53;98690.81;5033066;28;20028;-44
2022/04/10 10:32:39;;;;;;;8.77;3.65;;;;;;;14.04;49.33;98684.97;5028850;28;20539;-43
2022/04/10 10:35:06;;;;;;;6.93;3.45;;;;;;;13.90;48.86;98684.09;5032723;28;20543;-44
2022/04/10 10:37:47;;;;;;;9.55;5.22;;;;;;;13.78;48.65;98684.88;5045044;28;20183;-45
2022/04/10 10:40:17;;;;;;;4.43;2.97;;;;;;;13.53;48.89;98696.03;5048319;28;20476;-47
2022/04/10 10:42:44;;;;;;;6.63;3.75;;;;;;;13.39;48.96;98692.59;5047017;28;20592;-46
2022/04/10 10:45:10;;;;;;;9.10;4.03;;;;;;;13.31;49.48;98686.97;5043243;28;20127;-45
2022/04/10 10:47:36;;;;;;;4.85;3.28;;;;;;;13.24;49.80;98696.94;5048714;28;20159;-46
2022/04/10 10:50:25;;;;;;;5.97;4.07;;;;;;;13.08;50.22;98697.00;5046485;28;20033;-45
2022/04/10 10:53:06;;;;;;;5.25;3.10;;;;;;;12.99;50.22;98700.19;5043816;28;20045;-44
2022/04/10 10:55:45;;;;;;;5.25;3.85;;;;;;;12.89;50.30;98706.88;5046953;28;20041;-46
2022/04/10 10:58:14;;;;;;;4.00;3.07;;;;;;;12.89;50.22;98708.63;5040464;28;20043;-45
2022/04/10 11:00:40;;;;;;;7.05;3.45;;;;;;;12.87;50.16;98697.47;5031919;28;20304;-46
2022/04/10 11:03:09;;;;;;;8.10;3.47;;;;;;;12.99;50.06;98708.00;5066851;28;20041;-44
2022/04/10 11:05:36;;;;;;;9.38;4.07;;;;;;;13.01;49.74;98716.59;5045690;28;20048;-43
2022/04/10 11:08:06;;;;;;;6.25;3.80;;;;;;;13.01;50.01;98721.81;5014795;28;20033;-43
2022/04/10 11:10:36;;;;;;;6.30;4.18;;;;;;;13.00;50.10;98724.50;5039979;28;20044;-44
2022/04/10 11:13:02;;;;;;;8.27;4.07;;;;;;;12.93;50.67;98725.78;5042309;28;20657;-43
2022/04/10 11:15:47;;;;;;;11.48;4.00;;;;;;;12.78;50.96;98732.75;5030204;28;20107;-47
2022/04/10 11:18:23;;;;;;;7.63;4.30;;;;;;;12.58;51.00;98746.94;5043704;28;20037;-44
2022/04/10 11:21:15;;;;;;;3.63;2.90;;;;;;;12.43;51.08;98742.59;5028790;28;20492;-44
2022/04/10 11:23:48;;;;;;;5.50;2.88;;;;;;;12.31;50.20;98738.94;5041325;28;20041;-45
2022/04/10 11:26:19;;;;;;;7.85;2.95;;;;;;;12.25;49.89;98736.66;5036650;28;20045;-43
2022/04/10 11:29:00;;;;;;;4.55;2.70;;;;;;;12.18;50.06;98735.34;5034533;28;20080;-45
2022/04/10 11:31:33;;;;;;;6.50;2.60;;;;;;;12.09;49.56;98730.63;5037695;28;20532;-44
2022/04/10 11:34:08;;;;;;;4.50;2.65;;;;;;;12.04;49.61;98737.00;5042964;28;20041;-43
2022/04/10 11:36:47;;;;;;;7.47;3.15;;;;;;;12.00;50.15;98720.72;5045334;28;20041;-45
2022/04/10 11:39:14;;;;;;;5.90;2.88;;;;;;;11.97;49.96;98720.06;5045197;28;20098;-44
2022/04/10 11:41:41;;;;;;;6.28;2.85;;;;;;;11.93;50.33;98731.56;5044330;28;20123;-44
2022/04/10 11:44:08;;;;;;;6.70;3.50;;;;;;;11.90;50.24;98722.16;5047938;28;20036;-47
2022/04/10 11:46:34;;;;;;;7.60;3.45;;;;;;;11.89;50.61;98729.13;5046119;28;20055;-45
2022/04/10 11:49:01;;;;;;;6.97;3.40;;;;;;;11.89;50.64;98725.69;5057344;28;20049;-45
2022/04/10 11:51:27;;;;;;;5.75;3.97;;;;;;;11.94;50.81;98720.22;5046949;28;20049;-44
2022/04/10 11:53:58;;;;;;;5.93;3.00;;;;;;;12.04;50.95;98737.00;5047863;28;20033;-45
2022/04/10 11:56:24;;;;;;;9.38;3.63;;;;;;;12.04;50.63;98730.03;5060937;28;20048;-45
2022/04/10 11:58:50;;;;;;;9.02;3.58;;;;;;;12.01;51.09;98731.97;5071798;28;20114;-47
2022/04/10 12:01:18;;;;;;;5.50;3.40;;;;;;;12.01;51.09;98731.97;5062444;28;20761;-46
2022/04/10 12:03:51;;;;;;;9.13;3.63;;;;;;;11.97;51.47;98743.50;5044874;28;20036;-45